createdAt,value
2017-10-04T00:00:15.422Z,0
2017-10-04T00:01:16.411Z,0
2017-10-04T00:02:16.417Z,0
2017-10-04T00:03:16.222Z,0
2017-10-04T00:04:16.238Z,0
2017-10-04T00:05:15.904Z,0
2017-10-04T00:06:15.936Z,0
2017-10-04T00:07:15.935Z,0
2017-10-04T00:08:16.532Z,0
2017-10-04T00:09:16.229Z,0
2017-10-04T00:10:16.563Z,0
2017-10-04T00:11:16.289Z,0
2017-10-04T00:12:15.966Z,0
2017-10-04T00:13:16.295Z,0
2017-10-04T00:14:16.315Z,0
2017-10-04T00:15:16.331Z,0
2017-10-04T00:16:16.221Z,0
2017-10-04T00:17:17.010Z,0
2017-10-04T00:18:16.388Z,0
2017-10-04T00:19:16.082Z,0
2017-10-04T00:20:16.231Z,0
2017-10-04T00:21:16.442Z,0
2017-10-04T00:22:17.102Z,0
2017-10-04T00:23:16.478Z,0
2017-10-04T00:24:16.817Z,0
2017-10-04T00:25:16.191Z,0
2017-10-04T00:26:16.205Z,0
2017-10-04T00:27:16.550Z,0
2017-10-04T00:28:16.258Z,0
2017-10-04T00:29:16.906Z,0
2017-10-04T00:30:16.602Z,0
2017-10-04T00:31:16.616Z,0
2017-10-04T00:32:16.637Z,0
2017-10-04T00:33:17.294Z,0
2017-10-04T00:34:16.347Z,0
2017-10-04T00:35:16.374Z,0
2017-10-04T00:36:17.031Z,0
2017-10-04T00:37:16.406Z,0
2017-10-04T00:38:16.744Z,0
2017-10-04T00:39:16.758Z,0
2017-10-04T00:40:16.782Z,0
2017-10-04T00:41:17.116Z,0
2017-10-04T00:42:16.814Z,0
2017-10-04T00:43:16.834Z,0
2017-10-04T00:44:17.506Z,0
2017-10-04T00:45:17.515Z,0
2017-10-04T00:46:16.892Z,0
2017-10-04T00:47:16.915Z,0
2017-10-04T00:48:17.243Z,0
2017-10-04T00:49:17.583Z,0
2017-10-04T00:50:16.960Z,0
2017-10-04T00:51:16.980Z,0
2017-10-04T00:52:16.999Z,0
2017-10-04T00:53:17.018Z,0
2017-10-04T00:54:17.039Z,0
2017-10-04T00:55:17.056Z,0
2017-10-04T00:56:17.065Z,0
2017-10-04T00:57:17.407Z,0
2017-10-04T00:58:17.100Z,0
2017-10-04T00:59:17.439Z,0
2017-10-04T01:00:17.787Z,0
2017-10-04T01:01:16.506Z,0
2017-10-04T01:02:17.497Z,0
2017-10-04T01:03:17.302Z,0
2017-10-04T01:04:16.890Z,0
2017-10-04T01:05:49.620Z,0
2017-10-04T01:06:17.250Z,0
2017-10-04T01:07:16.940Z,0
2017-10-04T01:08:17.598Z,0
2017-10-04T01:09:16.979Z,0
2017-10-04T01:10:17.315Z,0
2017-10-04T01:11:17.344Z,0
2017-10-04T01:12:17.036Z,0
2017-10-04T01:13:17.366Z,0
2017-10-04T01:14:17.705Z,0
2017-10-04T01:15:17.408Z,0
2017-10-04T01:16:17.109Z,0
2017-10-04T01:17:17.441Z,0
2017-10-04T01:18:17.136Z,0
2017-10-04T01:19:17.795Z,0
2017-10-04T01:20:17.811Z,0
2017-10-04T01:21:17.922Z,0
2017-10-04T01:22:17.953Z,0
2017-10-04T01:23:17.635Z,0
2017-10-04T01:24:17.986Z,0
2017-10-04T01:25:17.066Z,0
2017-10-04T01:26:17.832Z,0
2017-10-04T01:27:17.304Z,0
2017-10-04T01:28:18.165Z,0
2017-10-04T01:29:17.331Z,0
2017-10-04T01:30:17.351Z,0
2017-10-04T01:31:18.029Z,0
2017-10-04T01:32:18.034Z,0
2017-10-04T01:33:17.407Z,0
2017-10-04T01:34:18.514Z,0
2017-10-04T01:35:17.431Z,0
2017-10-04T01:36:18.216Z,0
2017-10-04T01:37:17.906Z,0
2017-10-04T01:38:18.204Z,0
2017-10-04T01:39:18.377Z,0
2017-10-04T01:40:17.924Z,0
2017-10-04T01:41:18.264Z,0
2017-10-04T01:42:17.921Z,0
2017-10-04T01:43:18.582Z,0
2017-10-04T01:44:17.933Z,0
2017-10-04T01:45:17.744Z,0
2017-10-04T01:46:17.738Z,0
2017-10-04T01:47:17.658Z,0
2017-10-04T01:48:17.762Z,0
2017-10-04T01:49:17.878Z,0
2017-10-04T01:50:17.377Z,0
2017-10-04T01:51:18.205Z,0
2017-10-04T01:52:18.210Z,0
2017-10-04T01:53:18.199Z,0
2017-10-04T01:54:17.897Z,0
2017-10-04T01:55:18.448Z,0
2017-10-04T01:56:18.453Z,0
2017-10-04T01:57:18.249Z,0
2017-10-04T01:58:18.243Z,0
2017-10-04T01:59:18.602Z,0
2017-10-04T02:00:18.067Z,0
2017-10-04T02:01:18.065Z,0
2017-10-04T02:02:18.606Z,0
2017-10-04T02:03:17.958Z,0
2017-10-04T02:04:18.921Z,0
2017-10-04T02:05:18.627Z,0
2017-10-04T02:06:18.626Z,0
2017-10-04T02:07:18.332Z,0
2017-10-04T02:08:18.022Z,0
2017-10-04T02:09:18.687Z,0
2017-10-04T02:10:18.213Z,0
2017-10-04T02:11:18.075Z,0
2017-10-04T02:12:18.783Z,0
2017-10-04T02:13:18.529Z,0
2017-10-04T02:14:18.540Z,0
2017-10-04T02:15:18.214Z,0
2017-10-04T02:16:18.802Z,0
2017-10-04T02:17:18.501Z,0
2017-10-04T02:18:18.845Z,0
2017-10-04T02:19:18.542Z,0
2017-10-04T02:20:18.290Z,0
2017-10-04T02:21:18.895Z,0
2017-10-04T02:22:18.287Z,0
2017-10-04T02:23:19.247Z,0
2017-10-04T02:24:18.948Z,0
2017-10-04T02:25:18.323Z,0
2017-10-04T02:26:18.341Z,0
2017-10-04T02:27:19.008Z,0
2017-10-04T02:28:18.704Z,0
2017-10-04T02:29:19.040Z,0
2017-10-04T02:30:18.415Z,0
2017-10-04T02:31:18.748Z,0
2017-10-04T02:32:19.095Z,0
2017-10-04T02:33:18.793Z,0
2017-10-04T02:34:18.814Z,0
2017-10-04T02:35:19.481Z,0
2017-10-04T02:36:18.840Z,0
2017-10-04T02:37:18.536Z,0
2017-10-04T02:38:18.874Z,0
2017-10-04T02:39:18.891Z,0
2017-10-04T02:40:19.239Z,0
2017-10-04T02:41:18.284Z,0
2017-10-04T02:42:18.952Z,0
2017-10-04T02:43:18.970Z,0
2017-10-04T02:44:19.632Z,0
2017-10-04T02:45:19.330Z,0
2017-10-04T02:46:19.348Z,0
2017-10-04T02:47:19.676Z,0
2017-10-04T02:48:19.372Z,0
2017-10-04T02:49:19.072Z,0
2017-10-04T02:50:19.406Z,0
2017-10-04T02:51:19.434Z,0
2017-10-04T02:52:19.455Z,0
2017-10-04T02:53:19.473Z,0
2017-10-04T02:54:18.837Z,0
2017-10-04T02:55:19.833Z,0
2017-10-04T02:56:19.521Z,0
2017-10-04T02:57:19.532Z,0
2017-10-04T02:58:19.229Z,0
2017-10-04T02:59:19.575Z,0
2017-10-04T03:00:18.945Z,0
2017-10-04T03:01:18.967Z,0
2017-10-04T03:02:19.296Z,0
2017-10-04T03:03:18.674Z,0
2017-10-04T03:04:19.979Z,0
2017-10-04T03:05:19.027Z,0
2017-10-04T03:06:19.695Z,0
2017-10-04T03:07:19.708Z,0
2017-10-04T03:08:20.056Z,0
2017-10-04T03:09:19.421Z,0
2017-10-04T03:10:19.767Z,0
2017-10-04T03:11:20.302Z,0
2017-10-04T03:12:19.807Z,0
2017-10-04T03:13:20.143Z,0
2017-10-04T03:14:19.513Z,0
2017-10-04T03:15:20.167Z,0
2017-10-04T03:16:19.865Z,0
2017-10-04T03:17:19.981Z,0
2017-10-04T03:18:19.259Z,0
2017-10-04T03:19:20.020Z,0
2017-10-04T03:20:19.298Z,0
2017-10-04T03:21:19.314Z,0
2017-10-04T03:22:20.010Z,0
2017-10-04T03:23:19.346Z,0
2017-10-04T03:24:19.689Z,0
2017-10-04T03:25:19.705Z,0
2017-10-04T03:26:20.149Z,0
2017-10-04T03:27:20.056Z,0
2017-10-04T03:28:19.758Z,0
2017-10-04T03:29:19.795Z,0
2017-10-04T03:30:20.570Z,0
2017-10-04T03:31:20.542Z,0
2017-10-04T03:32:19.550Z,0
2017-10-04T03:33:19.530Z,0
2017-10-04T03:34:19.542Z,0
2017-10-04T03:35:20.373Z,0
2017-10-04T03:36:19.571Z,0
2017-10-04T03:37:20.385Z,0
2017-10-04T03:38:19.934Z,0
2017-10-04T03:39:20.517Z,0
2017-10-04T03:40:19.964Z,0
2017-10-04T03:41:19.336Z,0
2017-10-04T03:42:20.084Z,0
2017-10-04T03:43:20.082Z,0
2017-10-04T03:44:19.881Z,0
2017-10-04T03:45:20.524Z,0
2017-10-04T03:46:20.530Z,0
2017-10-04T03:47:19.876Z,0
2017-10-04T03:48:20.197Z,0
2017-10-04T03:49:20.231Z,0
2017-10-04T03:50:19.907Z,0
2017-10-04T03:51:20.068Z,0
2017-10-04T03:52:20.702Z,0
2017-10-04T03:53:19.741Z,0
2017-10-04T03:54:20.068Z,0
2017-10-04T03:55:20.653Z,0
2017-10-04T03:56:20.392Z,0
2017-10-04T03:57:19.951Z,0
2017-10-04T03:58:20.282Z,0
2017-10-04T03:59:19.979Z,0
2017-10-04T04:00:20.312Z,0
2017-10-04T04:01:20.213Z,0
2017-10-04T04:02:20.701Z,0
2017-10-04T04:03:20.377Z,0
2017-10-04T04:04:20.206Z,0
2017-10-04T04:05:20.409Z,0
2017-10-04T04:06:20.847Z,0
2017-10-04T04:07:20.117Z,0
2017-10-04T04:08:20.453Z,0
2017-10-04T04:09:20.217Z,0
2017-10-04T04:10:20.806Z,0
2017-10-04T04:11:19.929Z,0
2017-10-04T04:12:20.758Z,0
2017-10-04T04:13:20.535Z,0
2017-10-04T04:14:20.886Z,0
2017-10-04T04:15:20.288Z,0
2017-10-04T04:16:20.591Z,0
2017-10-04T04:17:20.963Z,0
2017-10-04T04:18:20.951Z,0
2017-10-04T04:19:20.647Z,0
2017-10-04T04:20:21.302Z,0
2017-10-04T04:21:21.317Z,0
2017-10-04T04:22:20.696Z,0
2017-10-04T04:23:20.391Z,0
2017-10-04T04:24:20.406Z,0
2017-10-04T04:25:20.436Z,0
2017-10-04T04:26:21.091Z,0
2017-10-04T04:27:20.464Z,0
2017-10-04T04:28:21.456Z,0
2017-10-04T04:29:20.502Z,0
2017-10-04T04:30:21.162Z,0
2017-10-04T04:31:20.531Z,0
2017-10-04T04:32:21.195Z,0
2017-10-04T04:33:20.882Z,0
2017-10-04T04:34:20.905Z,0
2017-10-04T04:35:20.594Z,0
2017-10-04T04:36:20.957Z,0
2017-10-04T04:37:20.632Z,0
2017-10-04T04:38:21.292Z,0
2017-10-04T04:39:20.995Z,0
2017-10-04T04:40:20.566Z,0
2017-10-04T04:41:21.032Z,0
2017-10-04T04:42:21.041Z,0
2017-10-04T04:43:21.068Z,0
2017-10-04T04:44:21.409Z,0
2017-10-04T04:45:20.773Z,0
2017-10-04T04:46:21.442Z,0
2017-10-04T04:47:21.453Z,0
2017-10-04T04:48:21.466Z,0
2017-10-04T04:49:21.163Z,0
2017-10-04T04:50:21.184Z,0
2017-10-04T04:51:20.876Z,0
2017-10-04T04:52:21.211Z,0
2017-10-04T04:53:20.916Z,0
2017-10-04T04:54:21.569Z,0
2017-10-04T04:55:21.264Z,0
2017-10-04T04:56:21.624Z,0
2017-10-04T04:57:21.619Z,0
2017-10-04T04:58:21.648Z,0
2017-10-04T04:59:21.011Z,0
2017-10-04T05:00:21.358Z,0
2017-10-04T05:01:21.049Z,0
2017-10-04T05:02:21.387Z,0
2017-10-04T05:03:21.090Z,0
2017-10-04T05:04:21.100Z,0
2017-10-04T05:05:20.802Z,0
2017-10-04T05:06:22.092Z,0
2017-10-04T05:07:21.800Z,0
2017-10-04T05:08:21.168Z,0
2017-10-04T05:09:21.835Z,0
2017-10-04T05:10:21.523Z,0
2017-10-04T05:11:21.876Z,0
2017-10-04T05:12:21.240Z,0
2017-10-04T05:13:21.594Z,0
2017-10-04T05:14:21.596Z,0
2017-10-04T05:15:21.608Z,0
2017-10-04T05:16:21.310Z,0
2017-10-04T05:17:21.853Z,0
2017-10-04T05:18:22.067Z,0
2017-10-04T05:19:21.539Z,0
2017-10-04T05:20:22.467Z,0
2017-10-04T05:21:22.383Z,0
2017-10-04T05:22:22.063Z,0
2017-10-04T05:23:21.541Z,0
2017-10-04T05:24:22.323Z,0
2017-10-04T05:25:22.406Z,0
2017-10-04T05:26:21.986Z,0
2017-10-04T05:27:22.314Z,0
2017-10-04T05:28:22.013Z,0
2017-10-04T05:29:21.304Z,0
2017-10-04T05:30:22.510Z,0
2017-10-04T05:31:21.997Z,0
2017-10-04T05:32:21.682Z,0
2017-10-04T05:33:21.683Z,0
2017-10-04T05:34:21.712Z,0
2017-10-04T05:35:21.969Z,0
2017-10-04T05:36:22.290Z,0
2017-10-04T05:37:22.307Z,0
2017-10-04T05:38:22.322Z,0
2017-10-04T05:39:22.528Z,0
2017-10-04T05:40:22.362Z,0
2017-10-04T05:41:22.373Z,0
2017-10-04T05:42:22.066Z,0
2017-10-04T05:43:22.089Z,0
2017-10-04T05:44:22.465Z,0
2017-10-04T05:45:21.805Z,0
2017-10-04T05:46:22.587Z,0
2017-10-04T05:47:22.159Z,0
2017-10-04T05:48:22.181Z,0
2017-10-04T05:49:22.280Z,0
2017-10-04T05:50:22.113Z,0
2017-10-04T05:51:22.107Z,0
2017-10-04T05:52:22.563Z,0
2017-10-04T05:53:22.262Z,0
2017-10-04T05:54:21.953Z,0
2017-10-04T05:55:22.298Z,0
2017-10-04T05:56:22.310Z,0
2017-10-04T05:57:22.664Z,0
2017-10-04T05:58:22.684Z,0
2017-10-04T05:59:22.692Z,0
2017-10-04T06:00:22.377Z,5
2017-10-04T06:01:22.721Z,5
2017-10-04T06:02:22.740Z,5
2017-10-04T06:03:22.464Z,5
2017-10-04T06:04:22.455Z,5
2017-10-04T06:05:21.905Z,5
2017-10-04T06:06:22.818Z,5
2017-10-04T06:07:22.823Z,5
2017-10-04T06:08:22.842Z,5
2017-10-04T06:09:22.852Z,5
2017-10-04T06:10:22.884Z,5
2017-10-04T06:11:22.575Z,5
2017-10-04T06:12:22.594Z,5
2017-10-04T06:13:22.925Z,5
2017-10-04T06:14:22.948Z,5
2017-10-04T06:15:22.986Z,5
2017-10-04T06:16:22.653Z,5
2017-10-04T06:17:22.674Z,5
2017-10-04T06:18:22.690Z,5
2017-10-04T06:19:22.069Z,5
2017-10-04T06:20:22.418Z,5
2017-10-04T06:21:22.741Z,5
2017-10-04T06:22:22.781Z,5
2017-10-04T06:23:23.095Z,5
2017-10-04T06:24:22.156Z,5
2017-10-04T06:25:23.452Z,5
2017-10-04T06:26:23.154Z,5
2017-10-04T06:27:22.861Z,5
2017-10-04T06:28:22.863Z,5
2017-10-04T06:29:22.884Z,5
2017-10-04T06:30:22.934Z,5
2017-10-04T06:31:22.916Z,5
2017-10-04T06:32:23.571Z,5
2017-10-04T06:33:22.961Z,5
2017-10-04T06:34:22.966Z,5
2017-10-04T06:35:22.981Z,5
2017-10-04T06:36:23.005Z,5
2017-10-04T06:37:23.347Z,5
2017-10-04T06:38:22.716Z,5
2017-10-04T06:39:22.726Z,5
2017-10-04T06:40:23.075Z,5
2017-10-04T06:41:23.417Z,5
2017-10-04T06:42:22.467Z,5
2017-10-04T06:43:23.136Z,5
2017-10-04T06:44:23.144Z,10
2017-10-04T06:45:22.830Z,10
2017-10-04T06:46:22.855Z,10
2017-10-04T06:47:22.548Z,10
2017-10-04T06:48:22.884Z,10
2017-10-04T06:49:22.905Z,5
2017-10-04T06:50:22.595Z,10
2017-10-04T06:51:22.942Z,10
2017-10-04T06:52:22.961Z,10
2017-10-04T06:53:23.614Z,10
2017-10-04T06:54:22.989Z,10
2017-10-04T06:55:23.332Z,10
2017-10-04T06:56:23.673Z,10
2017-10-04T06:57:23.044Z,10
2017-10-04T06:58:23.384Z,10
2017-10-04T06:59:23.398Z,10
2017-10-04T07:00:23.421Z,10
2017-10-04T07:01:23.444Z,10
2017-10-04T07:02:23.449Z,10
2017-10-04T07:03:23.478Z,10
2017-10-04T07:04:23.481Z,10
2017-10-04T07:05:23.824Z,10
2017-10-04T07:06:24.299Z,10
2017-10-04T07:07:23.418Z,15
2017-10-04T07:08:23.873Z,15
2017-10-04T07:09:23.579Z,15
2017-10-04T07:10:24.038Z,15
2017-10-04T07:11:23.605Z,15
2017-10-04T07:12:24.049Z,15
2017-10-04T07:13:24.378Z,10
2017-10-04T07:14:23.341Z,10
2017-10-04T07:15:23.028Z,10
2017-10-04T07:16:24.136Z,10
2017-10-04T07:17:23.711Z,10
2017-10-04T07:18:23.411Z,10
2017-10-04T07:19:24.611Z,10
2017-10-04T07:20:23.457Z,15
2017-10-04T07:21:23.778Z,15
2017-10-04T07:22:23.157Z,15
2017-10-04T07:23:23.503Z,15
2017-10-04T07:24:23.507Z,15
2017-10-04T07:25:23.534Z,15
2017-10-04T07:26:24.509Z,15
2017-10-04T07:27:24.532Z,15
2017-10-04T07:28:23.910Z,15
2017-10-04T07:29:23.923Z,15
2017-10-04T07:30:23.622Z,15
2017-10-04T07:31:24.607Z,15
2017-10-04T07:32:24.006Z,15
2017-10-04T07:33:23.990Z,15
2017-10-04T07:34:24.009Z,15
2017-10-04T07:35:24.362Z,15
2017-10-04T07:36:24.375Z,20
2017-10-04T07:37:24.055Z,20
2017-10-04T07:38:24.401Z,20
2017-10-04T07:39:24.413Z,20
2017-10-04T07:40:24.438Z,20
2017-10-04T07:41:24.161Z,20
2017-10-04T07:42:24.467Z,20
2017-10-04T07:43:24.169Z,20
2017-10-04T07:44:23.980Z,20
2017-10-04T07:45:24.279Z,20
2017-10-04T07:46:24.106Z,15
2017-10-04T07:47:23.789Z,15
2017-10-04T07:48:24.753Z,15
2017-10-04T07:49:24.744Z,15
2017-10-04T07:50:24.433Z,15
2017-10-04T07:51:24.108Z,15
2017-10-04T07:52:24.432Z,10
2017-10-04T07:53:24.431Z,10
2017-10-04T07:54:24.467Z,10
2017-10-04T07:55:24.907Z,10
2017-10-04T07:56:24.475Z,10
2017-10-04T07:57:24.505Z,10
2017-10-04T07:58:24.929Z,10
2017-10-04T07:59:24.930Z,10
2017-10-04T08:00:24.911Z,10
2017-10-04T08:01:24.171Z,10
2017-10-04T08:02:25.234Z,10
2017-10-04T08:03:24.849Z,10
2017-10-04T08:04:24.867Z,10
2017-10-04T08:05:25.216Z,10
2017-10-04T08:06:24.579Z,10
2017-10-04T08:07:24.598Z,10
2017-10-04T08:08:24.617Z,10
2017-10-04T08:09:24.958Z,10
2017-10-04T08:10:25.084Z,15
2017-10-04T08:11:24.983Z,15
2017-10-04T08:12:25.412Z,15
2017-10-04T08:13:25.411Z,15
2017-10-04T08:14:25.040Z,15
2017-10-04T08:15:24.758Z,20
2017-10-04T08:16:24.439Z,20
2017-10-04T08:17:24.781Z,20
2017-10-04T08:18:24.797Z,25
2017-10-04T08:19:24.486Z,25
2017-10-04T08:20:24.501Z,25
2017-10-04T08:21:24.846Z,25
2017-10-04T08:22:25.502Z,25
2017-10-04T08:23:24.889Z,25
2017-10-04T08:24:24.900Z,25
2017-10-04T08:25:25.250Z,25
2017-10-04T08:26:24.620Z,25
2017-10-04T08:27:24.637Z,25
2017-10-04T08:28:25.625Z,25
2017-10-04T08:29:25.011Z,25
2017-10-04T08:30:25.020Z,25
2017-10-04T08:31:25.043Z,20
2017-10-04T08:32:25.364Z,25
2017-10-04T08:33:25.184Z,20
2017-10-04T08:34:25.496Z,20
2017-10-04T08:35:25.420Z,25
2017-10-04T08:36:24.886Z,20
2017-10-04T08:37:25.462Z,20
2017-10-04T08:38:25.474Z,30
2017-10-04T08:39:25.485Z,25
2017-10-04T08:40:25.194Z,25
2017-10-04T08:41:25.210Z,25
2017-10-04T08:42:24.905Z,25
2017-10-04T08:43:25.291Z,20
2017-10-04T08:44:25.580Z,20
2017-10-04T08:45:24.952Z,20
2017-10-04T08:46:25.304Z,20
2017-10-04T08:47:25.649Z,25
2017-10-04T08:48:25.667Z,25
2017-10-04T08:49:25.785Z,20
2017-10-04T08:50:25.699Z,20
2017-10-04T08:51:25.718Z,15
2017-10-04T08:52:26.165Z,15
2017-10-04T08:53:25.431Z,15
2017-10-04T08:54:25.859Z,20
2017-10-04T08:55:25.563Z,20
2017-10-04T08:56:25.581Z,20
2017-10-04T08:57:25.613Z,20
2017-10-04T08:58:25.944Z,20
2017-10-04T08:59:24.894Z,20
2017-10-04T09:00:25.756Z,20
2017-10-04T09:01:26.067Z,20
2017-10-04T09:02:25.934Z,20
2017-10-04T09:03:25.748Z,15
2017-10-04T09:04:25.732Z,20
2017-10-04T09:05:25.356Z,15
2017-10-04T09:06:25.676Z,15
2017-10-04T09:07:26.016Z,15
2017-10-04T09:08:25.462Z,20
2017-10-04T09:09:25.403Z,15
2017-10-04T09:10:26.078Z,15
2017-10-04T09:11:25.766Z,15
2017-10-04T09:12:25.457Z,15
2017-10-04T09:13:25.481Z,20
2017-10-04T09:14:26.393Z,20
2017-10-04T09:15:26.394Z,20
2017-10-04T09:16:25.212Z,25
2017-10-04T09:17:26.392Z,25
2017-10-04T09:18:26.279Z,20
2017-10-04T09:19:25.913Z,20
2017-10-04T09:20:26.290Z,25
2017-10-04T09:21:26.292Z,35
2017-10-04T09:22:25.647Z,30
2017-10-04T09:23:26.312Z,30
2017-10-04T09:24:26.344Z,25
2017-10-04T09:25:26.347Z,25
2017-10-04T09:26:26.044Z,20
2017-10-04T09:27:26.062Z,20
2017-10-04T09:28:26.415Z,30
2017-10-04T09:29:25.780Z,25
2017-10-04T09:30:26.778Z,35
2017-10-04T09:31:26.136Z,30
2017-10-04T09:32:25.525Z,40
2017-10-04T09:33:26.500Z,40
2017-10-04T09:34:25.554Z,40
2017-10-04T09:35:26.533Z,30
2017-10-04T09:36:26.287Z,25
2017-10-04T09:37:26.567Z,35
2017-10-04T09:38:26.465Z,30
2017-10-04T09:39:25.960Z,35
2017-10-04T09:40:26.633Z,30
2017-10-04T09:41:26.639Z,25
2017-10-04T09:42:26.352Z,20
2017-10-04T09:43:26.105Z,15
2017-10-04T09:44:26.705Z,15
2017-10-04T09:45:26.716Z,15
2017-10-04T09:46:26.112Z,25
2017-10-04T09:47:26.751Z,35
2017-10-04T09:48:26.770Z,30
2017-10-04T09:49:26.805Z,35
2017-10-04T09:50:26.828Z,35
2017-10-04T09:51:26.192Z,35
2017-10-04T09:52:26.864Z,35
2017-10-04T09:53:27.193Z,35
2017-10-04T09:54:26.268Z,40
2017-10-04T09:55:26.910Z,40
2017-10-04T09:56:26.615Z,40
2017-10-04T09:57:26.987Z,45
2017-10-04T09:58:26.326Z,40
2017-10-04T09:59:26.997Z,40
2017-10-04T10:00:26.807Z,40
2017-10-04T10:01:26.833Z,40
2017-10-04T10:02:27.152Z,40
2017-10-04T10:03:27.388Z,35
2017-10-04T10:04:26.449Z,35
2017-10-04T10:05:27.138Z,40
2017-10-04T10:06:26.893Z,40
2017-10-04T10:07:26.505Z,45
2017-10-04T10:08:26.648Z,40
2017-10-04T10:09:27.183Z,45
2017-10-04T10:10:27.199Z,45
2017-10-04T10:11:27.229Z,45
2017-10-04T10:12:26.926Z,40
2017-10-04T10:13:26.693Z,40
2017-10-04T10:14:26.629Z,40
2017-10-04T10:15:27.037Z,40
2017-10-04T10:16:27.000Z,40
2017-10-04T10:17:26.372Z,35
2017-10-04T10:18:27.465Z,35
2017-10-04T10:19:26.736Z,40
2017-10-04T10:20:27.899Z,25
2017-10-04T10:21:27.460Z,30
2017-10-04T10:22:27.112Z,35
2017-10-04T10:23:27.466Z,30
2017-10-04T10:24:27.154Z,30
2017-10-04T10:25:27.171Z,25
2017-10-04T10:26:27.507Z,25
2017-10-04T10:27:26.885Z,25
2017-10-04T10:28:27.223Z,25
2017-10-04T10:29:27.245Z,30
2017-10-04T10:30:27.269Z,30
2017-10-04T10:31:27.298Z,35
2017-10-04T10:32:27.305Z,35
2017-10-04T10:33:27.971Z,40
2017-10-04T10:34:27.233Z,35
2017-10-04T10:35:27.043Z,35
2017-10-04T10:36:28.038Z,35
2017-10-04T10:37:27.730Z,35
2017-10-04T10:38:27.112Z,35
2017-10-04T10:39:27.441Z,30
2017-10-04T10:40:27.470Z,25
2017-10-04T10:41:27.972Z,20
2017-10-04T10:42:27.841Z,20
2017-10-04T10:43:27.209Z,20
2017-10-04T10:44:27.542Z,25
2017-10-04T10:45:27.236Z,30
2017-10-04T10:46:27.914Z,30
2017-10-04T10:47:27.601Z,30
2017-10-04T10:48:27.730Z,30
2017-10-04T10:49:27.318Z,20
2017-10-04T10:50:27.660Z,20
2017-10-04T10:51:28.085Z,25
2017-10-04T10:52:27.389Z,25
2017-10-04T10:53:27.781Z,25
2017-10-04T10:54:28.082Z,35
2017-10-04T10:55:28.608Z,40
2017-10-04T10:56:28.227Z,35
2017-10-04T10:57:27.478Z,35
2017-10-04T10:58:27.499Z,30
2017-10-04T10:59:27.855Z,30
2017-10-04T11:00:28.511Z,30
2017-10-04T11:01:27.874Z,30
2017-10-04T11:02:28.233Z,20
2017-10-04T11:03:28.334Z,20
2017-10-04T11:04:27.618Z,20
2017-10-04T11:05:27.631Z,20
2017-10-04T11:06:27.649Z,20
2017-10-04T11:07:28.318Z,15
2017-10-04T11:08:27.691Z,15
2017-10-04T11:09:27.817Z,15
2017-10-04T11:10:28.144Z,15
2017-10-04T11:11:28.090Z,15
2017-10-04T11:12:28.619Z,20
2017-10-04T11:13:28.968Z,25
2017-10-04T11:14:28.139Z,25
2017-10-04T11:15:28.796Z,30
2017-10-04T11:16:27.857Z,25
2017-10-04T11:17:28.856Z,25
2017-10-04T11:18:28.563Z,20
2017-10-04T11:19:28.242Z,20
2017-10-04T11:20:28.898Z,20
2017-10-04T11:21:28.924Z,30
2017-10-04T11:22:28.941Z,30
2017-10-04T11:23:28.975Z,40
2017-10-04T11:24:28.015Z,50
2017-10-04T11:25:28.353Z,40
2017-10-04T11:26:28.056Z,35
2017-10-04T11:27:28.730Z,40
2017-10-04T11:28:28.793Z,35
2017-10-04T11:29:28.553Z,20
2017-10-04T11:30:28.584Z,20
2017-10-04T11:31:28.489Z,10
2017-10-04T11:32:29.225Z,10
2017-10-04T11:33:28.930Z,15
2017-10-04T11:34:28.342Z,20
2017-10-04T11:35:28.972Z,25
2017-10-04T11:36:28.497Z,15
2017-10-04T11:37:28.994Z,10
2017-10-04T11:38:29.131Z,20
2017-10-04T11:39:29.060Z,25
2017-10-04T11:40:28.733Z,35
2017-10-04T11:41:28.531Z,25
2017-10-04T11:42:28.736Z,25
2017-10-04T11:43:29.033Z,35
2017-10-04T11:44:29.178Z,45
2017-10-04T11:45:28.652Z,40
2017-10-04T11:46:29.196Z,30
2017-10-04T11:47:28.912Z,35
2017-10-04T11:48:28.924Z,40
2017-10-04T11:49:28.521Z,45
2017-10-04T11:50:28.940Z,50
2017-10-04T11:51:29.373Z,45
2017-10-04T11:52:28.895Z,40
2017-10-04T11:53:29.039Z,45
2017-10-04T11:54:28.621Z,45
2017-10-04T11:55:29.161Z,40
2017-10-04T11:56:29.626Z,40
2017-10-04T11:57:28.672Z,40
2017-10-04T11:58:29.335Z,45
2017-10-04T11:59:28.429Z,45
2017-10-04T12:00:29.054Z,45
2017-10-04T12:01:28.787Z,45
2017-10-04T12:02:28.667Z,45
2017-10-04T12:03:29.442Z,40
2017-10-04T12:04:29.142Z,40
2017-10-04T12:05:29.159Z,40
2017-10-04T12:06:29.843Z,45
2017-10-04T12:07:29.200Z,40
2017-10-04T12:08:29.546Z,35
2017-10-04T12:09:29.559Z,35
2017-10-04T12:10:29.593Z,35
2017-10-04T12:11:28.964Z,35
2017-10-04T12:12:29.303Z,40
2017-10-04T12:13:29.323Z,40
2017-10-04T12:14:29.021Z,35
2017-10-04T12:15:29.367Z,35
2017-10-04T12:16:29.387Z,35
2017-10-04T12:17:29.402Z,35
2017-10-04T12:18:29.833Z,35
2017-10-04T12:19:29.449Z,35
2017-10-04T12:20:29.463Z,40
2017-10-04T12:21:29.485Z,40
2017-10-04T12:22:29.818Z,35
2017-10-04T12:23:29.849Z,35
2017-10-04T12:24:30.291Z,30
2017-10-04T12:25:28.916Z,25
2017-10-04T12:26:29.593Z,25
2017-10-04T12:27:30.242Z,25
2017-10-04T12:28:29.634Z,25
2017-10-04T12:29:29.977Z,20
2017-10-04T12:30:29.669Z,15
2017-10-04T12:31:29.365Z,15
2017-10-04T12:32:29.713Z,15
2017-10-04T12:33:30.368Z,10
2017-10-04T12:34:30.404Z,15
2017-10-04T12:35:30.220Z,10
2017-10-04T12:36:29.587Z,10
2017-10-04T12:37:29.819Z,15
2017-10-04T12:38:30.161Z,20
2017-10-04T12:39:29.863Z,20
2017-10-04T12:40:29.885Z,25
2017-10-04T12:41:29.901Z,25
2017-10-04T12:42:29.972Z,15
2017-10-04T12:43:29.647Z,10
2017-10-04T12:44:29.964Z,10
2017-10-04T12:45:30.427Z,10
2017-10-04T12:46:30.421Z,15
2017-10-04T12:47:30.014Z,20
2017-10-04T12:48:30.037Z,30
2017-10-04T12:49:30.703Z,30
2017-10-04T12:50:30.729Z,30
2017-10-04T12:51:30.432Z,30
2017-10-04T12:52:30.448Z,30
2017-10-04T12:53:30.459Z,35
2017-10-04T12:54:30.485Z,45
2017-10-04T12:55:30.185Z,45
2017-10-04T12:56:30.521Z,40
2017-10-04T12:57:30.226Z,35
2017-10-04T12:58:30.431Z,30
2017-10-04T12:59:30.587Z,35
2017-10-04T13:00:30.608Z,40
2017-10-04T13:01:30.623Z,40
2017-10-04T13:02:30.008Z,35
2017-10-04T13:03:30.025Z,25
2017-10-04T13:04:31.093Z,35
2017-10-04T13:05:30.065Z,40
2017-10-04T13:06:30.085Z,45
2017-10-04T13:07:30.762Z,45
2017-10-04T13:08:30.125Z,50
2017-10-04T13:09:29.828Z,45
2017-10-04T13:10:30.596Z,45
2017-10-04T13:11:30.287Z,45
2017-10-04T13:12:30.214Z,40
2017-10-04T13:13:30.377Z,35
2017-10-04T13:14:30.680Z,30
2017-10-04T13:15:30.437Z,15
2017-10-04T13:16:31.134Z,15
2017-10-04T13:17:30.996Z,15
2017-10-04T13:18:30.424Z,15
2017-10-04T13:19:30.368Z,20
2017-10-04T13:20:30.783Z,15
2017-10-04T13:21:30.405Z,20
2017-10-04T13:22:30.175Z,15
2017-10-04T13:23:30.440Z,15
2017-10-04T13:24:30.781Z,15
2017-10-04T13:25:30.797Z,15
2017-10-04T13:26:30.502Z,20
2017-10-04T13:27:31.166Z,15
2017-10-04T13:28:30.540Z,15
2017-10-04T13:29:30.881Z,20
2017-10-04T13:30:30.608Z,15
2017-10-04T13:31:31.572Z,20
2017-10-04T13:32:31.272Z,20
2017-10-04T13:33:31.178Z,15
2017-10-04T13:34:31.322Z,10
2017-10-04T13:35:31.327Z,15
2017-10-04T13:36:31.354Z,15
2017-10-04T13:37:31.699Z,10
2017-10-04T13:38:30.746Z,10
2017-10-04T13:39:31.090Z,10
2017-10-04T13:40:30.803Z,10
2017-10-04T13:41:31.575Z,10
2017-10-04T13:42:30.834Z,5
2017-10-04T13:43:31.492Z,10
2017-10-04T13:44:31.189Z,10
2017-10-04T13:45:31.858Z,10
2017-10-04T13:46:31.878Z,10
2017-10-04T13:47:31.299Z,10
2017-10-04T13:48:31.711Z,10
2017-10-04T13:49:31.286Z,15
2017-10-04T13:50:31.716Z,10
2017-10-04T13:51:31.976Z,10
2017-10-04T13:52:31.724Z,10
2017-10-04T13:53:31.378Z,10
2017-10-04T13:54:31.727Z,15
2017-10-04T13:55:32.061Z,20
2017-10-04T13:56:32.072Z,20
2017-10-04T13:57:31.858Z,15
2017-10-04T13:58:31.866Z,15
2017-10-04T13:59:31.868Z,10
2017-10-04T14:00:31.864Z,15
2017-10-04T14:01:31.863Z,15
2017-10-04T14:02:31.233Z,15
2017-10-04T14:03:32.223Z,15
2017-10-04T14:04:31.706Z,15
2017-10-04T14:05:32.139Z,15
2017-10-04T14:06:31.836Z,15
2017-10-04T14:07:31.845Z,15
2017-10-04T14:08:31.886Z,15
2017-10-04T14:09:32.345Z,10
2017-10-04T14:10:32.053Z,15
2017-10-04T14:11:32.063Z,15
2017-10-04T14:12:32.080Z,15
2017-10-04T14:13:32.106Z,15
2017-10-04T14:14:32.129Z,10
2017-10-04T14:15:32.549Z,15
2017-10-04T14:16:32.232Z,15
2017-10-04T14:17:31.540Z,15
2017-10-04T14:18:32.197Z,10
2017-10-04T14:19:31.897Z,15
2017-10-04T14:20:32.359Z,15
2017-10-04T14:21:32.388Z,15
2017-10-04T14:22:32.288Z,15
2017-10-04T14:23:32.833Z,15
2017-10-04T14:24:32.138Z,15
2017-10-04T14:25:32.440Z,15
2017-10-04T14:26:32.049Z,15
2017-10-04T14:27:32.485Z,15
2017-10-04T14:28:32.527Z,15
2017-10-04T14:29:32.201Z,10
2017-10-04T14:30:32.565Z,10